sensor_id;sensor_type;location;lat;lon;timestamp;temperature;humidity
36710;DHT22;22694;51.040;3.684;2023-03-14T00:01:23;15.70;81.40
36710;DHT22;22694;51.040;3.684;2023-03-14T00:03:49;15.70;81.40
36710;DHT22;22694;51.040;3.684;2023-03-14T00:06:15;15.70;81.40
36710;DHT22;22694;51.040;3.684;2023-03-14T00:08:43;15.70;81.40
36710;DHT22;22694;51.040;3.684;2023-03-14T00:11:14;15.60;81.30
36710;DHT22;22694;51.040;3.684;2023-03-14T00:13:40;15.60;81.40
36710;DHT22;22694;51.040;3.684;2023-03-14T00:16:10;15.60;81.40
36710;DHT22;22694;51.040;3.684;2023-03-14T00:18:36;15.60;82.10
36710;DHT22;22694;51.040;3.684;2023-03-14T00:21:03;15.60;81.50
36710;DHT22;22694;51.040;3.684;2023-03-14T00:23:30;15.60;81.50
36710;DHT22;22694;51.040;3.684;2023-03-14T00:26:00;15.50;81.50
36710;DHT22;22694;51.040;3.684;2023-03-14T00:28:27;15.50;81.50
36710;DHT22;22694;51.040;3.684;2023-03-14T00:30:52;15.50;81.60
36710;DHT22;22694;51.040;3.684;2023-03-14T00:33:18;15.50;81.50
36710;DHT22;22694;51.040;3.684;2023-03-14T00:35:51;15.50;81.70
36710;DHT22;22694;51.040;3.684;2023-03-14T00:38:17;15.50;81.60
36710;DHT22;22694;51.040;3.684;2023-03-14T00:40:42;15.50;81.70
36710;DHT22;22694;51.040;3.684;2023-03-14T00:43:08;15.50;81.70
36710;DHT22;22694;51.040;3.684;2023-03-14T00:45:33;15.40;81.70
36710;DHT22;22694;51.040;3.684;2023-03-14T00:48:00;15.40;81.80
36710;DHT22;22694;51.040;3.684;2023-03-14T00:50:26;15.40;81.80
36710;DHT22;22694;51.040;3.684;2023-03-14T00:52:51;15.30;81.80
36710;DHT22;22694;51.040;3.684;2023-03-14T00:55:17;15.30;81.80
36710;DHT22;22694;51.040;3.684;2023-03-14T00:57:42;15.40;81.80
36710;DHT22;22694;51.040;3.684;2023-03-14T01:00:08;15.30;81.90
36710;DHT22;22694;51.040;3.684;2023-03-14T01:02:37;15.30;81.80
36710;DHT22;22694;51.040;3.684;2023-03-14T01:05:02;15.30;81.90
36710;DHT22;22694;51.040;3.684;2023-03-14T01:07:28;15.30;81.90
36710;DHT22;22694;51.040;3.684;2023-03-14T01:09:54;15.30;81.80
36710;DHT22;22694;51.040;3.684;2023-03-14T01:12:19;15.30;82.00
36710;DHT22;22694;51.040;3.684;2023-03-14T01:14:45;15.30;81.90
36710;DHT22;22694;51.040;3.684;2023-03-14T01:17:11;15.20;82.00
36710;DHT22;22694;51.040;3.684;2023-03-14T01:19:36;15.20;82.00
36710;DHT22;22694;51.040;3.684;2023-03-14T01:22:02;15.20;82.00
36710;DHT22;22694;51.040;3.684;2023-03-14T01:24:27;15.20;82.00
36710;DHT22;22694;51.040;3.684;2023-03-14T01:26:53;15.20;82.10
36710;DHT22;22694;51.040;3.684;2023-03-14T01:29:19;15.20;82.10
36710;DHT22;22694;51.040;3.684;2023-03-14T01:31:44;15.20;82.70
36710;DHT22;22694;51.040;3.684;2023-03-14T01:34:10;15.10;82.10
36710;DHT22;22694;51.040;3.684;2023-03-14T01:36:35;15.10;82.10
36710;DHT22;22694;51.040;3.684;2023-03-14T01:39:02;15.10;82.20
36710;DHT22;22694;51.040;3.684;2023-03-14T01:41:28;15.10;82.20
36710;DHT22;22694;51.040;3.684;2023-03-14T01:43:53;15.10;82.20
36710;DHT22;22694;51.040;3.684;2023-03-14T01:46:49;15.10;82.30
36710;DHT22;22694;51.040;3.684;2023-03-14T01:52:04;15.10;82.30
36710;DHT22;22694;51.040;3.684;2023-03-14T01:54:42;15.00;82.30
36710;DHT22;22694;51.040;3.684;2023-03-14T01:57:22;15.00;82.30
36710;DHT22;22694;51.040;3.684;2023-03-14T01:59:55;15.00;82.40
36710;DHT22;22694;51.040;3.684;2023-03-14T02:02:22;15.00;82.50
36710;DHT22;22694;51.040;3.684;2023-03-14T02:04:49;15.00;82.50
36710;DHT22;22694;51.040;3.684;2023-03-14T02:07:40;15.00;82.50
36710;DHT22;22694;51.040;3.684;2023-03-14T02:10:08;15.00;82.50
36710;DHT22;22694;51.040;3.684;2023-03-14T02:12:36;15.00;82.60
36710;DHT22;22694;51.040;3.684;2023-03-14T02:15:03;14.90;82.60
36710;DHT22;22694;51.040;3.684;2023-03-14T02:17:28;14.90;82.60
36710;DHT22;22694;51.040;3.684;2023-03-14T02:20:13;15.00;82.70
36710;DHT22;22694;51.040;3.684;2023-03-14T02:22:43;14.90;82.60
36710;DHT22;22694;51.040;3.684;2023-03-14T02:25:41;14.90;82.70
36710;DHT22;22694;51.040;3.684;2023-03-14T02:28:05;14.90;82.70
36710;DHT22;22694;51.040;3.684;2023-03-14T02:30:32;14.90;82.70
36710;DHT22;22694;51.040;3.684;2023-03-14T02:33:04;14.90;82.80
36710;DHT22;22694;51.040;3.684;2023-03-14T02:35:36;14.90;82.70
36710;DHT22;22694;51.040;3.684;2023-03-14T02:40:53;14.90;82.80
36710;DHT22;22694;51.040;3.684;2023-03-14T02:43:19;14.90;82.80
36710;DHT22;22694;51.040;3.684;2023-03-14T02:45:46;14.90;82.90
36710;DHT22;22694;51.040;3.684;2023-03-14T02:48:27;14.80;82.80
36710;DHT22;22694;51.040;3.684;2023-03-14T02:50:56;14.80;82.80
36710;DHT22;22694;51.040;3.684;2023-03-14T02:53:26;14.80;82.90
36710;DHT22;22694;51.040;3.684;2023-03-14T02:55:52;14.80;82.90
36710;DHT22;22694;51.040;3.684;2023-03-14T02:58:18;14.80;82.90
36710;DHT22;22694;51.040;3.684;2023-03-14T03:00:44;14.80;83.00
36710;DHT22;22694;51.040;3.684;2023-03-14T03:03:11;14.80;83.00
36710;DHT22;22694;51.040;3.684;2023-03-14T03:05:37;14.80;83.00
36710;DHT22;22694;51.040;3.684;2023-03-14T03:08:03;14.80;83.00
36710;DHT22;22694;51.040;3.684;2023-03-14T03:10:29;14.80;83.10
36710;DHT22;22694;51.040;3.684;2023-03-14T03:12:55;14.80;83.10
36710;DHT22;22694;51.040;3.684;2023-03-14T03:15:20;14.80;83.10
36710;DHT22;22694;51.040;3.684;2023-03-14T03:17:46;14.80;83.10
36710;DHT22;22694;51.040;3.684;2023-03-14T03:20:12;14.80;83.10
36710;DHT22;22694;51.040;3.684;2023-03-14T03:22:38;14.80;83.20
36710;DHT22;22694;51.040;3.684;2023-03-14T03:25:05;14.70;83.70
36710;DHT22;22694;51.040;3.684;2023-03-14T03:27:36;14.80;83.20
36710;DHT22;22694;51.040;3.684;2023-03-14T03:30:04;14.70;83.20
36710;DHT22;22694;51.040;3.684;2023-03-14T03:32:30;14.70;83.20
36710;DHT22;22694;51.040;3.684;2023-03-14T03:34:55;14.70;83.30
36710;DHT22;22694;51.040;3.684;2023-03-14T03:37:21;14.70;83.30
36710;DHT22;22694;51.040;3.684;2023-03-14T03:39:46;14.70;83.30
36710;DHT22;22694;51.040;3.684;2023-03-14T03:42:12;14.70;83.30
36710;DHT22;22694;51.040;3.684;2023-03-14T03:44:38;14.70;83.30
36710;DHT22;22694;51.040;3.684;2023-03-14T03:47:03;14.70;83.40
36710;DHT22;22694;51.040;3.684;2023-03-14T03:49:30;14.70;83.40
36710;DHT22;22694;51.040;3.684;2023-03-14T03:51:56;14.70;83.40
36710;DHT22;22694;51.040;3.684;2023-03-14T03:54:22;14.70;83.40
36710;DHT22;22694;51.040;3.684;2023-03-14T03:56:48;14.70;83.40
36710;DHT22;22694;51.040;3.684;2023-03-14T03:59:13;14.60;83.40
36710;DHT22;22694;51.040;3.684;2023-03-14T04:01:39;14.70;83.50
36710;DHT22;22694;51.040;3.684;2023-03-14T04:04:05;14.70;83.50
36710;DHT22;22694;51.040;3.684;2023-03-14T04:06:31;14.60;83.40
36710;DHT22;22694;51.040;3.684;2023-03-14T04:08:56;14.60;83.50
36710;DHT22;22694;51.040;3.684;2023-03-14T04:11:22;14.70;83.60
36710;DHT22;22694;51.040;3.684;2023-03-14T04:13:48;14.60;83.50
36710;DHT22;22694;51.040;3.684;2023-03-14T04:16:24;14.60;83.50
36710;DHT22;22694;51.040;3.684;2023-03-14T04:18:50;14.60;83.50
36710;DHT22;22694;51.040;3.684;2023-03-14T04:21:17;14.60;83.60
36710;DHT22;22694;51.040;3.684;2023-03-14T04:23:42;14.60;83.60
36710;DHT22;22694;51.040;3.684;2023-03-14T04:26:08;14.60;83.60
36710;DHT22;22694;51.040;3.684;2023-03-14T04:28:34;14.60;83.70
36710;DHT22;22694;51.040;3.684;2023-03-14T04:31:13;14.60;83.70
36710;DHT22;22694;51.040;3.684;2023-03-14T04:33:39;14.60;83.70
36710;DHT22;22694;51.040;3.684;2023-03-14T04:36:05;14.60;83.70
36710;DHT22;22694;51.040;3.684;2023-03-14T04:38:32;14.60;83.70
36710;DHT22;22694;51.040;3.684;2023-03-14T04:40:57;14.60;83.80
36710;DHT22;22694;51.040;3.684;2023-03-14T04:43:24;14.60;83.80
36710;DHT22;22694;51.040;3.684;2023-03-14T04:45:54;14.60;83.80
36710;DHT22;22694;51.040;3.684;2023-03-14T04:48:20;14.60;83.80
36710;DHT22;22694;51.040;3.684;2023-03-14T04:50:47;14.60;83.90
36710;DHT22;22694;51.040;3.684;2023-03-14T04:53:13;14.60;83.90
36710;DHT22;22694;51.040;3.684;2023-03-14T04:55:38;14.60;84.00
36710;DHT22;22694;51.040;3.684;2023-03-14T04:58:04;14.60;84.00
36710;DHT22;22694;51.040;3.684;2023-03-14T05:00:30;14.60;84.00
36710;DHT22;22694;51.040;3.684;2023-03-14T05:02:56;14.60;84.10
36710;DHT22;22694;51.040;3.684;2023-03-14T05:05:21;14.60;84.10
36710;DHT22;22694;51.040;3.684;2023-03-14T05:07:47;14.60;84.10
36710;DHT22;22694;51.040;3.684;2023-03-14T05:10:13;14.50;84.10
36710;DHT22;22694;51.040;3.684;2023-03-14T05:12:39;14.60;84.10
36710;DHT22;22694;51.040;3.684;2023-03-14T05:15:05;14.50;84.10
36710;DHT22;22694;51.040;3.684;2023-03-14T05:17:32;14.50;84.10
36710;DHT22;22694;51.040;3.684;2023-03-14T05:19:58;14.50;84.10
36710;DHT22;22694;51.040;3.684;2023-03-14T05:22:24;14.50;84.10
36710;DHT22;22694;51.040;3.684;2023-03-14T05:24:49;14.50;84.10
36710;DHT22;22694;51.040;3.684;2023-03-14T05:27:15;14.50;84.10
36710;DHT22;22694;51.040;3.684;2023-03-14T05:29:40;14.50;84.10
36710;DHT22;22694;51.040;3.684;2023-03-14T05:32:06;14.50;84.10
36710;DHT22;22694;51.040;3.684;2023-03-14T05:34:32;14.50;84.10
36710;DHT22;22694;51.040;3.684;2023-03-14T05:36:57;14.50;84.20
36710;DHT22;22694;51.040;3.684;2023-03-14T05:39:23;14.50;84.20
36710;DHT22;22694;51.040;3.684;2023-03-14T05:41:49;14.50;84.20
36710;DHT22;22694;51.040;3.684;2023-03-14T05:44:15;14.50;84.30
36710;DHT22;22694;51.040;3.684;2023-03-14T05:46:41;14.50;84.40
36710;DHT22;22694;51.040;3.684;2023-03-14T05:49:07;14.50;84.40
36710;DHT22;22694;51.040;3.684;2023-03-14T05:51:32;14.50;84.30
36710;DHT22;22694;51.040;3.684;2023-03-14T05:53:58;14.50;84.30
36710;DHT22;22694;51.040;3.684;2023-03-14T05:56:23;14.50;84.30
36710;DHT22;22694;51.040;3.684;2023-03-14T05:58:49;14.50;84.40
36710;DHT22;22694;51.040;3.684;2023-03-14T06:01:15;14.50;84.30
36710;DHT22;22694;51.040;3.684;2023-03-14T06:03:40;14.50;84.30
36710;DHT22;22694;51.040;3.684;2023-03-14T06:06:06;14.50;84.30
36710;DHT22;22694;51.040;3.684;2023-03-14T06:08:32;14.50;84.30
36710;DHT22;22694;51.040;3.684;2023-03-14T06:10:58;14.50;84.20
36710;DHT22;22694;51.040;3.684;2023-03-14T06:13:24;14.50;84.20
36710;DHT22;22694;51.040;3.684;2023-03-14T06:15:49;14.50;84.20
36710;DHT22;22694;51.040;3.684;2023-03-14T06:18:15;14.50;84.20
36710;DHT22;22694;51.040;3.684;2023-03-14T06:20:41;14.50;84.20
36710;DHT22;22694;51.040;3.684;2023-03-14T06:23:07;14.50;84.20
36710;DHT22;22694;51.040;3.684;2023-03-14T06:25:33;14.50;84.10
36710;DHT22;22694;51.040;3.684;2023-03-14T06:27:59;14.40;84.10
36710;DHT22;22694;51.040;3.684;2023-03-14T06:30:25;14.40;84.10
36710;DHT22;22694;51.040;3.684;2023-03-14T06:32:50;14.40;84.10
36710;DHT22;22694;51.040;3.684;2023-03-14T06:35:16;14.40;84.10
36710;DHT22;22694;51.040;3.684;2023-03-14T06:37:42;14.40;84.10
36710;DHT22;22694;51.040;3.684;2023-03-14T06:40:09;14.40;84.10
36710;DHT22;22694;51.040;3.684;2023-03-14T06:42:35;14.40;84.00
36710;DHT22;22694;51.040;3.684;2023-03-14T06:45:01;14.40;84.00
36710;DHT22;22694;51.040;3.684;2023-03-14T06:47:27;14.40;84.10
36710;DHT22;22694;51.040;3.684;2023-03-14T06:49:52;14.40;84.10
36710;DHT22;22694;51.040;3.684;2023-03-14T06:52:18;14.40;84.10
36710;DHT22;22694;51.040;3.684;2023-03-14T06:54:44;14.40;84.10
36710;DHT22;22694;51.040;3.684;2023-03-14T06:57:09;14.40;84.10
36710;DHT22;22694;51.040;3.684;2023-03-14T06:59:35;14.40;84.10
36710;DHT22;22694;51.040;3.684;2023-03-14T07:02:00;14.40;85.40
36710;DHT22;22694;51.040;3.684;2023-03-14T07:04:26;14.60;87.70
36710;DHT22;22694;51.040;3.684;2023-03-14T07:06:52;14.70;88.20
36710;DHT22;22694;51.040;3.684;2023-03-14T07:09:17;14.80;87.40
36710;DHT22;22694;51.040;3.684;2023-03-14T07:11:43;14.80;87.00
36710;DHT22;22694;51.040;3.684;2023-03-14T07:14:09;14.90;86.80
36710;DHT22;22694;51.040;3.684;2023-03-14T07:16:34;14.90;86.70
36710;DHT22;22694;51.040;3.684;2023-03-14T07:19:01;14.90;86.60
36710;DHT22;22694;51.040;3.684;2023-03-14T07:21:27;14.90;86.60
36710;DHT22;22694;51.040;3.684;2023-03-14T07:23:53;15.00;86.50
36710;DHT22;22694;51.040;3.684;2023-03-14T07:26:19;15.00;86.40
36710;DHT22;22694;51.040;3.684;2023-03-14T07:28:45;15.00;86.40
36710;DHT22;22694;51.040;3.684;2023-03-14T07:31:10;15.00;86.40
36710;DHT22;22694;51.040;3.684;2023-03-14T07:33:36;15.00;86.30
36710;DHT22;22694;51.040;3.684;2023-03-14T07:36:02;15.00;86.30
36710;DHT22;22694;51.040;3.684;2023-03-14T07:38:27;15.00;86.00
36710;DHT22;22694;51.040;3.684;2023-03-14T07:41:00;14.90;84.70
36710;DHT22;22694;51.040;3.684;2023-03-14T07:43:26;14.90;84.10
36710;DHT22;22694;51.040;3.684;2023-03-14T07:45:52;14.80;84.00
36710;DHT22;22694;51.040;3.684;2023-03-14T07:48:17;14.80;83.80
36710;DHT22;22694;51.040;3.684;2023-03-14T07:50:43;14.70;83.70
36710;DHT22;22694;51.040;3.684;2023-03-14T07:53:11;14.70;83.70
36710;DHT22;22694;51.040;3.684;2023-03-14T07:55:37;14.70;83.50
36710;DHT22;22694;51.040;3.684;2023-03-14T07:58:04;14.70;83.50
36710;DHT22;22694;51.040;3.684;2023-03-14T08:00:30;14.60;83.50
36710;DHT22;22694;51.040;3.684;2023-03-14T08:02:55;14.60;83.60
36710;DHT22;22694;51.040;3.684;2023-03-14T08:05:21;14.60;83.50
36710;DHT22;22694;51.040;3.684;2023-03-14T08:07:47;14.60;83.00
36710;DHT22;22694;51.040;3.684;2023-03-14T08:10:13;14.50;83.10
36710;DHT22;22694;51.040;3.684;2023-03-14T08:12:46;14.50;83.10
36710;DHT22;22694;51.040;3.684;2023-03-14T08:15:11;14.50;83.30
36710;DHT22;22694;51.040;3.684;2023-03-14T08:17:37;14.50;83.20
36710;DHT22;22694;51.040;3.684;2023-03-14T08:20:03;14.50;83.10
36710;DHT22;22694;51.040;3.684;2023-03-14T08:22:32;14.50;83.20
36710;DHT22;22694;51.040;3.684;2023-03-14T08:24:58;14.50;83.30
36710;DHT22;22694;51.040;3.684;2023-03-14T08:27:23;14.50;83.20
36710;DHT22;22694;51.040;3.684;2023-03-14T08:29:49;14.50;83.20
36710;DHT22;22694;51.040;3.684;2023-03-14T08:32:15;14.50;83.30
36710;DHT22;22694;51.040;3.684;2023-03-14T08:34:40;14.40;83.30
36710;DHT22;22694;51.040;3.684;2023-03-14T08:37:06;14.40;83.10
36710;DHT22;22694;51.040;3.684;2023-03-14T08:39:31;14.60;92.20
36710;DHT22;22694;51.040;3.684;2023-03-14T08:41:57;15.00;91.20
36710;DHT22;22694;51.040;3.684;2023-03-14T08:44:23;15.10;89.20
36710;DHT22;22694;51.040;3.684;2023-03-14T08:46:48;15.00;84.50
36710;DHT22;22694;51.040;3.684;2023-03-14T08:49:14;14.90;82.90
36710;DHT22;22694;51.040;3.684;2023-03-14T08:51:40;15.00;91.60
36710;DHT22;22694;51.040;3.684;2023-03-14T08:54:05;15.20;91.50
36710;DHT22;22694;51.040;3.684;2023-03-14T08:56:31;15.20;87.10
36710;DHT22;22694;51.040;3.684;2023-03-14T08:58:57;15.10;83.90
36710;DHT22;22694;51.040;3.684;2023-03-14T09:01:22;14.90;81.90
36710;DHT22;22694;51.040;3.684;2023-03-14T09:03:50;14.80;81.50
36710;DHT22;22694;51.040;3.684;2023-03-14T09:06:16;14.70;81.60
36710;DHT22;22694;51.040;3.684;2023-03-14T09:08:45;14.70;81.90
36710;DHT22;22694;51.040;3.684;2023-03-14T09:11:11;14.60;82.00
36710;DHT22;22694;51.040;3.684;2023-03-14T09:13:37;14.50;82.10
36710;DHT22;22694;51.040;3.684;2023-03-14T09:16:04;14.50;82.20
36710;DHT22;22694;51.040;3.684;2023-03-14T09:18:29;14.50;82.80
36710;DHT22;22694;51.040;3.684;2023-03-14T09:20:55;14.40;82.20
36710;DHT22;22694;51.040;3.684;2023-03-14T09:23:21;14.40;82.30
36710;DHT22;22694;51.040;3.684;2023-03-14T09:25:47;14.40;82.40
36710;DHT22;22694;51.040;3.684;2023-03-14T09:28:13;14.30;82.40
36710;DHT22;22694;51.040;3.684;2023-03-14T09:30:38;14.30;82.40
36710;DHT22;22694;51.040;3.684;2023-03-14T09:33:04;14.30;82.40
36710;DHT22;22694;51.040;3.684;2023-03-14T09:35:30;14.20;82.30
36710;DHT22;22694;51.040;3.684;2023-03-14T09:37:55;14.20;82.30
36710;DHT22;22694;51.040;3.684;2023-03-14T09:40:21;14.20;82.30
36710;DHT22;22694;51.040;3.684;2023-03-14T09:42:51;14.20;82.20
36710;DHT22;22694;51.040;3.684;2023-03-14T09:45:25;14.20;82.20
36710;DHT22;22694;51.040;3.684;2023-03-14T09:47:52;14.10;82.20
36710;DHT22;22694;51.040;3.684;2023-03-14T09:50:19;14.10;82.20
36710;DHT22;22694;51.040;3.684;2023-03-14T09:52:51;14.10;82.10
36710;DHT22;22694;51.040;3.684;2023-03-14T09:55:18;14.10;82.10
36710;DHT22;22694;51.040;3.684;2023-03-14T09:57:45;14.10;82.10
36710;DHT22;22694;51.040;3.684;2023-03-14T10:00:26;14.40;93.10
36710;DHT22;22694;51.040;3.684;2023-03-14T10:02:58;14.70;92.00
36710;DHT22;22694;51.040;3.684;2023-03-14T10:05:27;14.80;90.20
36710;DHT22;22694;51.040;3.684;2023-03-14T10:07:55;14.70;84.90
36710;DHT22;22694;51.040;3.684;2023-03-14T10:10:23;14.60;83.00
36710;DHT22;22694;51.040;3.684;2023-03-14T10:15:41;14.70;85.80
36710;DHT22;22694;51.040;3.684;2023-03-14T10:18:12;14.80;86.00
36710;DHT22;22694;51.040;3.684;2023-03-14T10:20:47;14.80;86.20
36710;DHT22;22694;51.040;3.684;2023-03-14T10:28:38;14.90;86.70
36710;DHT22;22694;51.040;3.684;2023-03-14T10:31:04;14.80;82.40
36710;DHT22;22694;51.040;3.684;2023-03-14T10:33:32;14.70;80.90
36710;DHT22;22694;51.040;3.684;2023-03-14T10:36:23;14.50;80.80
36710;DHT22;22694;51.040;3.684;2023-03-14T10:41:48;14.40;81.20
36710;DHT22;22694;51.040;3.684;2023-03-14T10:44:16;14.30;81.40
36710;DHT22;22694;51.040;3.684;2023-03-14T10:46:44;14.20;81.50
36710;DHT22;22694;51.040;3.684;2023-03-14T10:49:33;14.20;81.50
36710;DHT22;22694;51.040;3.684;2023-03-14T10:52:14;14.20;81.90
36710;DHT22;22694;51.040;3.684;2023-03-14T10:54:39;14.10;81.70
36710;DHT22;22694;51.040;3.684;2023-03-14T10:57:05;14.10;81.90
36710;DHT22;22694;51.040;3.684;2023-03-14T10:59:36;14.00;81.90
36710;DHT22;22694;51.040;3.684;2023-03-14T11:07:44;13.90;81.90
36710;DHT22;22694;51.040;3.684;2023-03-14T11:10:32;14.00;82.10
36710;DHT22;22694;51.040;3.684;2023-03-14T11:15:38;14.00;90.00
36710;DHT22;22694;51.040;3.684;2023-03-14T11:29:26;14.00;81.40
36710;DHT22;22694;51.040;3.684;2023-03-14T11:31:57;14.00;81.60
36710;DHT22;22694;51.040;3.684;2023-03-14T11:36:53;14.10;83.70
36710;DHT22;22694;51.040;3.684;2023-03-14T11:39:20;14.10;82.30
36710;DHT22;22694;51.040;3.684;2023-03-14T11:41:51;14.00;81.70
36710;DHT22;22694;51.040;3.684;2023-03-14T11:44:30;14.00;81.50
36710;DHT22;22694;51.040;3.684;2023-03-14T11:47:02;14.00;81.60
36710;DHT22;22694;51.040;3.684;2023-03-14T11:49:36;14.00;81.70
36710;DHT22;22694;51.040;3.684;2023-03-14T11:52:20;13.90;81.70
36710;DHT22;22694;51.040;3.684;2023-03-14T11:55:10;13.90;81.80
36710;DHT22;22694;51.040;3.684;2023-03-14T11:57:39;13.90;81.70
36710;DHT22;22694;51.040;3.684;2023-03-14T12:00:20;13.80;81.70
36710;DHT22;22694;51.040;3.684;2023-03-14T12:10:59;13.80;81.70
36710;DHT22;22694;51.040;3.684;2023-03-14T12:13:33;13.80;81.70
36710;DHT22;22694;51.040;3.684;2023-03-14T12:16:27;13.80;81.70
36710;DHT22;22694;51.040;3.684;2023-03-14T12:18:52;13.80;81.70
36710;DHT22;22694;51.040;3.684;2023-03-14T12:21:19;13.80;81.80
36710;DHT22;22694;51.040;3.684;2023-03-14T12:23:53;13.70;81.70
36710;DHT22;22694;51.040;3.684;2023-03-14T12:26:22;13.70;81.70
36710;DHT22;22694;51.040;3.684;2023-03-14T12:42:03;13.70;81.60
36710;DHT22;22694;51.040;3.684;2023-03-14T12:44:38;13.70;81.60
36710;DHT22;22694;51.040;3.684;2023-03-14T12:50:12;13.60;81.60
36710;DHT22;22694;51.040;3.684;2023-03-14T12:52:51;13.60;82.20
36710;DHT22;22694;51.040;3.684;2023-03-14T12:55:45;13.60;81.50
36710;DHT22;22694;51.040;3.684;2023-03-14T13:00:59;13.50;81.50
36710;DHT22;22694;51.040;3.684;2023-03-14T13:03:38;13.50;81.50
36710;DHT22;22694;51.040;3.684;2023-03-14T13:06:04;13.50;81.40
36710;DHT22;22694;51.040;3.684;2023-03-14T13:08:40;13.50;81.90
36710;DHT22;22694;51.040;3.684;2023-03-14T13:11:16;13.50;81.80
36710;DHT22;22694;51.040;3.684;2023-03-14T13:13:56;13.50;81.20
36710;DHT22;22694;51.040;3.684;2023-03-14T13:16:23;13.40;81.20
36710;DHT22;22694;51.040;3.684;2023-03-14T13:18:50;13.40;81.10
36710;DHT22;22694;51.040;3.684;2023-03-14T13:21:27;13.40;81.10
36710;DHT22;22694;51.040;3.684;2023-03-14T13:24:02;13.40;81.10
36710;DHT22;22694;51.040;3.684;2023-03-14T13:26:39;13.40;81.10
36710;DHT22;22694;51.040;3.684;2023-03-14T13:29:14;13.40;81.00
36710;DHT22;22694;51.040;3.684;2023-03-14T13:31:44;13.40;81.10
36710;DHT22;22694;51.040;3.684;2023-03-14T13:34:11;13.40;81.00
36710;DHT22;22694;51.040;3.684;2023-03-14T13:36:37;13.40;81.20
36710;DHT22;22694;51.040;3.684;2023-03-14T13:39:10;13.40;81.00
36710;DHT22;22694;51.040;3.684;2023-03-14T13:41:38;13.40;81.00
36710;DHT22;22694;51.040;3.684;2023-03-14T13:44:07;13.40;81.00
36710;DHT22;22694;51.040;3.684;2023-03-14T13:46:35;13.40;80.90
36710;DHT22;22694;51.040;3.684;2023-03-14T13:49:06;13.40;81.00
36710;DHT22;22694;51.040;3.684;2023-03-14T13:51:34;13.40;81.20
36710;DHT22;22694;51.040;3.684;2023-03-14T13:54:14;13.40;80.90
36710;DHT22;22694;51.040;3.684;2023-03-14T13:56:40;13.40;80.70
36710;DHT22;22694;51.040;3.684;2023-03-14T13:59:24;13.30;80.50
36710;DHT22;22694;51.040;3.684;2023-03-14T14:01:51;13.30;80.20
36710;DHT22;22694;51.040;3.684;2023-03-14T14:04:20;13.30;80.10
36710;DHT22;22694;51.040;3.684;2023-03-14T14:06:58;13.30;80.10
36710;DHT22;22694;51.040;3.684;2023-03-14T14:09:27;13.30;80.00
36710;DHT22;22694;51.040;3.684;2023-03-14T14:12:06;13.20;80.00
36710;DHT22;22694;51.040;3.684;2023-03-14T14:14:39;13.30;79.90
36710;DHT22;22694;51.040;3.684;2023-03-14T14:17:09;13.30;80.50
36710;DHT22;22694;51.040;3.684;2023-03-14T14:19:36;13.30;80.00
36710;DHT22;22694;51.040;3.684;2023-03-14T14:22:03;13.20;80.00
36710;DHT22;22694;51.040;3.684;2023-03-14T14:24:31;13.20;80.00
36710;DHT22;22694;51.040;3.684;2023-03-14T14:27:23;13.20;80.00
36710;DHT22;22694;51.040;3.684;2023-03-14T14:30:03;13.20;80.00
36710;DHT22;22694;51.040;3.684;2023-03-14T14:32:38;13.20;80.00
36710;DHT22;22694;51.040;3.684;2023-03-14T14:35:04;13.20;80.00
36710;DHT22;22694;51.040;3.684;2023-03-14T14:37:35;13.20;80.00
36710;DHT22;22694;51.040;3.684;2023-03-14T14:42:44;13.10;79.90
36710;DHT22;22694;51.040;3.684;2023-03-14T14:45:14;13.10;79.80
36710;DHT22;22694;51.040;3.684;2023-03-14T14:48:04;13.10;79.80
36710;DHT22;22694;51.040;3.684;2023-03-14T14:50:33;13.10;79.80
36710;DHT22;22694;51.040;3.684;2023-03-14T14:53:19;13.10;79.90
36710;DHT22;22694;51.040;3.684;2023-03-14T14:55:45;13.10;79.90
36710;DHT22;22694;51.040;3.684;2023-03-14T14:58:30;13.10;79.90
36710;DHT22;22694;51.040;3.684;2023-03-14T15:03:58;13.10;79.90
36710;DHT22;22694;51.040;3.684;2023-03-14T15:06:28;13.00;79.80
36710;DHT22;22694;51.040;3.684;2023-03-14T15:08:54;13.10;79.90
36710;DHT22;22694;51.040;3.684;2023-03-14T15:11:22;13.00;78.70
36710;DHT22;22694;51.040;3.684;2023-03-14T15:13:49;13.10;89.80
36710;DHT22;22694;51.040;3.684;2023-03-14T15:16:18;13.60;91.50
36710;DHT22;22694;51.040;3.684;2023-03-14T15:18:52;13.90;90.50
36710;DHT22;22694;51.040;3.684;2023-03-14T15:21:18;13.90;87.60
36710;DHT22;22694;51.040;3.684;2023-03-14T15:23:44;13.90;82.80
36710;DHT22;22694;51.040;3.684;2023-03-14T15:26:15;13.80;81.50
36710;DHT22;22694;51.040;3.684;2023-03-14T15:28:41;13.60;79.90
36710;DHT22;22694;51.040;3.684;2023-03-14T15:31:11;13.50;79.40
36710;DHT22;22694;51.040;3.684;2023-03-14T15:33:37;13.50;79.50
36710;DHT22;22694;51.040;3.684;2023-03-14T15:36:04;13.40;79.60
36710;DHT22;22694;51.040;3.684;2023-03-14T15:38:31;13.40;79.80
36710;DHT22;22694;51.040;3.684;2023-03-14T15:40:56;13.30;79.80
36710;DHT22;22694;51.040;3.684;2023-03-14T15:43:22;13.30;80.00
36710;DHT22;22694;51.040;3.684;2023-03-14T15:45:48;13.30;80.10
36710;DHT22;22694;51.040;3.684;2023-03-14T15:48:20;13.20;80.10
36710;DHT22;22694;51.040;3.684;2023-03-14T15:50:46;13.20;80.10
36710;DHT22;22694;51.040;3.684;2023-03-14T15:53:13;13.20;80.20
36710;DHT22;22694;51.040;3.684;2023-03-14T15:55:38;13.20;80.30
36710;DHT22;22694;51.040;3.684;2023-03-14T15:58:04;13.20;80.30
36710;DHT22;22694;51.040;3.684;2023-03-14T16:00:30;13.20;80.30
36710;DHT22;22694;51.040;3.684;2023-03-14T16:02:56;13.20;80.20
36710;DHT22;22694;51.040;3.684;2023-03-14T16:05:21;13.10;80.10
36710;DHT22;22694;51.040;3.684;2023-03-14T16:07:47;13.10;80.10
36710;DHT22;22694;51.040;3.684;2023-03-14T16:10:14;13.10;80.10
36710;DHT22;22694;51.040;3.684;2023-03-14T16:12:41;13.10;80.00
36710;DHT22;22694;51.040;3.684;2023-03-14T16:15:08;13.10;80.10
36710;DHT22;22694;51.040;3.684;2023-03-14T16:17:34;13.10;80.10
36710;DHT22;22694;51.040;3.684;2023-03-14T16:19:59;13.10;80.00
36710;DHT22;22694;51.040;3.684;2023-03-14T16:22:25;13.10;80.00
36710;DHT22;22694;51.040;3.684;2023-03-14T16:24:51;13.10;80.10
36710;DHT22;22694;51.040;3.684;2023-03-14T16:27:16;13.10;80.00
36710;DHT22;22694;51.040;3.684;2023-03-14T16:29:42;13.10;80.00
36710;DHT22;22694;51.040;3.684;2023-03-14T16:32:08;13.00;80.10
36710;DHT22;22694;51.040;3.684;2023-03-14T16:34:37;13.00;80.00
36710;DHT22;22694;51.040;3.684;2023-03-14T16:37:03;13.00;80.00
36710;DHT22;22694;51.040;3.684;2023-03-14T16:39:29;13.00;79.90
36710;DHT22;22694;51.040;3.684;2023-03-14T16:41:57;13.00;79.90
36710;DHT22;22694;51.040;3.684;2023-03-14T16:44:22;13.30;95.90
36710;DHT22;22694;51.040;3.684;2023-03-14T16:46:48;13.70;95.60
36710;DHT22;22694;51.040;3.684;2023-03-14T16:49:14;14.00;94.10